THY75G FQMA-FAOR
Flight info
| Callsign | THY75G |
|---|---|
| Flight time | 0h 42m |
| Altitude | 36000 |
| Route | ANVAK DCT IMKAN UT446 IBGUB |
| Aircraft | A359/H-SDE2E3GHIJ3J4J5LM1ORWXY/LB1D1 |
Departure
| Time | 2026-05-05 20:52 |
|---|---|
| Airport | Maputo Airport (FQMA) |
Arrival
| Time | 2026-05-05 21:35 |
|---|---|
| Airport | O.R. Tambo International Airport (FAOR) |
| Time | Latitude | Longitude | Altitude | Speed | Heading |
|---|---|---|---|---|---|
| 2026-05-05 20:34 | -25.92263 | 32.57647 | 138 ft | 0 kts | 176° |
| 2026-05-05 20:43 | -25.92255 | 32.57646 | 138 ft | 1 kts | 176° |
| 2026-05-05 20:43 | -25.92245 | 32.57646 | 138 ft | 1 kts | 176° |
| 2026-05-05 20:43 | -25.92239 | 32.57645 | 138 ft | 0 kts | 176° |
| 2026-05-05 20:44 | -25.92230 | 32.57645 | 138 ft | 3 kts | 176° |
| 2026-05-05 20:44 | -25.92210 | 32.57645 | 138 ft | 3 kts | 209° |
| 2026-05-05 20:44 | -25.92206 | 32.57647 | 138 ft | 0 kts | 219° |
| 2026-05-05 20:45 | -25.92207 | 32.57646 | 138 ft | 1 kts | 224° |
| 2026-05-05 20:45 | -25.92204 | 32.57619 | 138 ft | 6 kts | 284° |
| 2026-05-05 20:46 | -25.92190 | 32.57566 | 138 ft | 7 kts | 285° |
| 2026-05-05 20:46 | -25.92189 | 32.57493 | 138 ft | 10 kts | 265° |
| 2026-05-05 20:46 | -25.92185 | 32.57447 | 138 ft | 4 kts | 302° |
| 2026-05-05 20:46 | -25.92141 | 32.57440 | 138 ft | 11 kts | 12° |
| 2026-05-05 20:47 | -25.92038 | 32.57487 | 138 ft | 20 kts | 30° |
| 2026-05-05 20:47 | -25.91904 | 32.57572 | 138 ft | 24 kts | 29° |
| 2026-05-05 20:47 | -25.91744 | 32.57673 | 138 ft | 28 kts | 28° |
| 2026-05-05 20:47 | -25.91563 | 32.57782 | 138 ft | 29 kts | 28° |
| 2026-05-05 20:48 | -25.91386 | 32.57889 | 139 ft | 31 kts | 28° |
| 2026-05-05 20:48 | -25.91199 | 32.58003 | 139 ft | 29 kts | 29° |
| 2026-05-05 20:48 | -25.91035 | 32.58103 | 139 ft | 26 kts | 29° |
| 2026-05-05 20:48 | -25.90865 | 32.58208 | 139 ft | 30 kts | 28° |
| 2026-05-05 20:49 | -25.90689 | 32.58315 | 139 ft | 29 kts | 28° |
| 2026-05-05 20:49 | -25.90501 | 32.58429 | 139 ft | 33 kts | 28° |
| 2026-05-05 20:49 | -25.90308 | 32.58548 | 139 ft | 33 kts | 29° |
| 2026-05-05 20:49 | -25.90133 | 32.58656 | 139 ft | 28 kts | 28° |
| 2026-05-05 20:50 | -25.89968 | 32.58756 | 139 ft | 25 kts | 29° |
| 2026-05-05 20:50 | -25.89817 | 32.58849 | 139 ft | 23 kts | 29° |
| 2026-05-05 20:50 | -25.89706 | 32.58917 | 139 ft | 10 kts | 29° |
| 2026-05-05 20:50 | -25.89626 | 32.58927 | 139 ft | 13 kts | 330° |
| 2026-05-05 20:51 | -25.89602 | 32.58828 | 139 ft | 13 kts | 273° |
| 2026-05-05 20:51 | -25.89624 | 32.58754 | 139 ft | 10 kts | 212° |
| 2026-05-05 20:51 | -25.89741 | 32.58685 | 139 ft | 40 kts | 208° |
| 2026-05-05 20:51 | -25.90265 | 32.58367 | 139 ft | 128 kts | 209° |
| 2026-05-05 20:52 | -25.91235 | 32.57771 | 410 ft | 176 kts | 207° |
| 2026-05-05 20:52 | -25.92300 | 32.57050 | 1299 ft | 187 kts | 221° |
| 2026-05-05 20:52 | -25.93048 | 32.55787 | 1801 ft | 212 kts | 262° |
| 2026-05-05 20:52 | -25.92903 | 32.54100 | 2239 ft | 232 kts | 294° |
| 2026-05-05 20:53 | -25.92421 | 32.52342 | 3184 ft | 242 kts | 290° |
| 2026-05-05 20:53 | -25.92103 | 32.50487 | 4268 ft | 247 kts | 283° |
| 2026-05-05 20:53 | -25.91925 | 32.48559 | 5268 ft | 255 kts | 278° |
| 2026-05-05 20:53 | -25.91832 | 32.46581 | 6356 ft | 257 kts | 277° |
| 2026-05-05 20:54 | -25.91784 | 32.44584 | 7409 ft | 260 kts | 276° |
| 2026-05-05 20:54 | -25.91758 | 32.42556 | 8483 ft | 264 kts | 275° |
| 2026-05-05 20:54 | -25.91749 | 32.40505 | 9282 ft | 267 kts | 274° |
| 2026-05-05 20:54 | -25.91758 | 32.38433 | 9731 ft | 269 kts | 274° |
| 2026-05-05 20:55 | -25.91766 | 32.36347 | 9846 ft | 271 kts | 274° |
| 2026-05-05 20:55 | -25.91769 | 32.34253 | 9859 ft | 272 kts | 276° |
| 2026-05-05 20:55 | -25.91756 | 32.32153 | 9854 ft | 272 kts | 276° |
| 2026-05-05 20:55 | -25.91744 | 32.30051 | 9848 ft | 272 kts | 276° |
| 2026-05-05 20:56 | -25.91734 | 32.27926 | 9857 ft | 286 kts | 275° |
| 2026-05-05 20:56 | -25.91719 | 32.25637 | 9856 ft | 303 kts | 275° |
| 2026-05-05 20:56 | -25.91715 | 32.23277 | 9851 ft | 307 kts | 275° |
| 2026-05-05 20:56 | -25.91714 | 32.20897 | 9851 ft | 309 kts | 275° |
| 2026-05-05 20:57 | -25.91713 | 32.18505 | 9849 ft | 309 kts | 275° |
| 2026-05-05 20:57 | -25.91711 | 32.16153 | 9857 ft | 309 kts | 275° |
| 2026-05-05 20:57 | -25.91708 | 32.13772 | 9856 ft | 308 kts | 275° |
| 2026-05-05 20:57 | -25.91704 | 32.11393 | 9854 ft | 308 kts | 275° |
| 2026-05-05 20:58 | -25.91699 | 32.09016 | 9858 ft | 308 kts | 275° |
| 2026-05-05 20:58 | -25.91694 | 32.06644 | 9866 ft | 308 kts | 275° |
| 2026-05-05 20:58 | -25.91684 | 32.04265 | 9843 ft | 307 kts | 275° |
| 2026-05-05 20:58 | -25.91678 | 32.01899 | 9856 ft | 306 kts | 275° |
| 2026-05-05 20:59 | -25.91673 | 31.99539 | 9857 ft | 306 kts | 275° |
| 2026-05-05 20:59 | -25.91667 | 31.97176 | 9857 ft | 307 kts | 275° |
| 2026-05-05 20:59 | -25.91655 | 31.94809 | 9863 ft | 306 kts | 276° |
| 2026-05-05 20:59 | -25.91614 | 31.92445 | 9899 ft | 306 kts | 276° |
| 2026-05-05 21:00 | -25.91552 | 31.90067 | 10412 ft | 311 kts | 277° |
| 2026-05-05 21:00 | -25.91484 | 31.87665 | 11525 ft | 310 kts | 277° |
| 2026-05-05 21:00 | -25.91420 | 31.85277 | 12757 ft | 310 kts | 277° |
| 2026-05-05 21:00 | -25.91359 | 31.82878 | 13870 ft | 312 kts | 276° |
| 2026-05-05 21:01 | -25.91298 | 31.80458 | 14825 ft | 316 kts | 276° |
| 2026-05-05 21:01 | -25.91238 | 31.78000 | 15723 ft | 321 kts | 277° |
| 2026-05-05 21:01 | -25.91179 | 31.75509 | 16638 ft | 325 kts | 277° |
| 2026-05-05 21:01 | -25.91119 | 31.72977 | 17619 ft | 329 kts | 276° |
| 2026-05-05 21:02 | -25.91080 | 31.71292 | 18251 ft | 331 kts | 276° |
| 2026-05-05 21:02 | -25.91020 | 31.68730 | 19065 ft | 335 kts | 276° |
| 2026-05-05 21:02 | -25.90957 | 31.66122 | 19891 ft | 339 kts | 276° |
| 2026-05-05 21:02 | -25.90894 | 31.63479 | 20722 ft | 343 kts | 276° |
| 2026-05-05 21:03 | -25.90829 | 31.60814 | 21551 ft | 348 kts | 276° |
| 2026-05-05 21:03 | -25.90763 | 31.58110 | 22380 ft | 352 kts | 276° |
| 2026-05-05 21:03 | -25.90696 | 31.55372 | 23214 ft | 357 kts | 276° |
| 2026-05-05 21:03 | -25.90627 | 31.52603 | 23957 ft | 361 kts | 276° |
| 2026-05-05 21:04 | -25.90558 | 31.49796 | 24679 ft | 366 kts | 276° |
| 2026-05-05 21:04 | -25.90486 | 31.46960 | 25378 ft | 370 kts | 276° |
| 2026-05-05 21:04 | -25.90414 | 31.44093 | 26113 ft | 372 kts | 276° |
| 2026-05-05 21:04 | -25.90339 | 31.41203 | 26797 ft | 377 kts | 276° |
| 2026-05-05 21:05 | -25.90263 | 31.38282 | 27521 ft | 380 kts | 276° |
| 2026-05-05 21:05 | -25.90186 | 31.35332 | 28217 ft | 384 kts | 276° |
| 2026-05-05 21:05 | -25.90108 | 31.32348 | 28926 ft | 388 kts | 276° |
| 2026-05-05 21:05 | -25.90029 | 31.29346 | 29627 ft | 391 kts | 276° |
| 2026-05-05 21:06 | -25.89949 | 31.26307 | 30252 ft | 395 kts | 276° |
| 2026-05-05 21:06 | -25.89867 | 31.23246 | 30773 ft | 399 kts | 276° |
| 2026-05-05 21:06 | -25.89783 | 31.20138 | 31196 ft | 406 kts | 276° |
| 2026-05-05 21:06 | -25.89700 | 31.17033 | 31719 ft | 409 kts | 276° |
| 2026-05-05 21:07 | -25.89612 | 31.13823 | 32286 ft | 412 kts | 276° |
| 2026-05-05 21:07 | -25.89525 | 31.10676 | 32819 ft | 414 kts | 276° |
| 2026-05-05 21:07 | -25.89435 | 31.07468 | 33352 ft | 417 kts | 276° |
| 2026-05-05 21:07 | -25.89343 | 31.04239 | 33836 ft | 419 kts | 276° |
| 2026-05-05 21:08 | -25.89255 | 31.01019 | 34487 ft | 414 kts | 276° |
| 2026-05-05 21:08 | -25.89167 | 30.97838 | 35191 ft | 410 kts | 276° |
| 2026-05-05 21:08 | -25.89078 | 30.94678 | 35740 ft | 410 kts | 277° |
| 2026-05-05 21:08 | -25.88986 | 30.91510 | 35945 ft | 407 kts | 277° |
| 2026-05-05 21:09 | -25.88900 | 30.88426 | 35970 ft | 391 kts | 277° |
| 2026-05-05 21:09 | -25.88820 | 30.85472 | 35961 ft | 377 kts | 277° |
| 2026-05-05 21:09 | -25.88648 | 30.79691 | 35963 ft | 374 kts | 278° |
| 2026-05-05 21:10 | -25.88464 | 30.73918 | 35963 ft | 374 kts | 277° |
| 2026-05-05 21:10 | -25.88283 | 30.68144 | 35977 ft | 374 kts | 277° |
| 2026-05-05 21:11 | -25.88160 | 30.62356 | 35988 ft | 377 kts | 275° |
| 2026-05-05 21:11 | -25.88366 | 30.56530 | 35990 ft | 381 kts | 274° |
| 2026-05-05 21:12 | -25.88486 | 30.53547 | 35990 ft | 393 kts | 273° |
| 2026-05-05 21:12 | -25.88612 | 30.50462 | 36000 ft | 406 kts | 273° |
| 2026-05-05 21:12 | -25.88744 | 30.47276 | 35996 ft | 418 kts | 273° |
| 2026-05-05 21:12 | -25.88881 | 30.44023 | 36002 ft | 424 kts | 273° |
| 2026-05-05 21:13 | -25.89162 | 30.37470 | 36007 ft | 425 kts | 272° |
| 2026-05-05 21:13 | -25.89436 | 30.30892 | 35996 ft | 427 kts | 272° |
| 2026-05-05 21:14 | -25.89708 | 30.24295 | 35893 ft | 427 kts | 272° |
| 2026-05-05 21:14 | -25.89841 | 30.21003 | 35478 ft | 427 kts | 272° |
| 2026-05-05 21:14 | -25.89973 | 30.17707 | 34947 ft | 429 kts | 272° |
| 2026-05-05 21:15 | -25.90105 | 30.14389 | 34457 ft | 432 kts | 272° |
| 2026-05-05 21:15 | -25.90238 | 30.11043 | 33973 ft | 435 kts | 272° |
| 2026-05-05 21:15 | -25.90370 | 30.07674 | 33416 ft | 439 kts | 272° |
| 2026-05-05 21:15 | -25.90504 | 30.04270 | 32858 ft | 443 kts | 272° |
| 2026-05-05 21:16 | -25.90637 | 30.00888 | 32318 ft | 446 kts | 272° |
| 2026-05-05 21:16 | -25.90772 | 29.97437 | 31778 ft | 447 kts | 272° |
| 2026-05-05 21:16 | -25.90906 | 29.93983 | 31254 ft | 449 kts | 272° |
| 2026-05-05 21:16 | -25.91039 | 29.90506 | 30738 ft | 450 kts | 272° |
| 2026-05-05 21:17 | -25.91172 | 29.87030 | 30235 ft | 452 kts | 272° |
| 2026-05-05 21:17 | -25.91305 | 29.83547 | 29672 ft | 451 kts | 272° |
| 2026-05-05 21:17 | -25.91437 | 29.80066 | 29063 ft | 449 kts | 272° |
| 2026-05-05 21:17 | -25.91567 | 29.76614 | 28490 ft | 445 kts | 272° |
| 2026-05-05 21:18 | -25.91696 | 29.73200 | 27933 ft | 441 kts | 272° |
| 2026-05-05 21:18 | -25.91821 | 29.69817 | 27389 ft | 436 kts | 272° |
| 2026-05-05 21:18 | -25.91945 | 29.66462 | 26857 ft | 433 kts | 272° |
| 2026-05-05 21:18 | -25.92066 | 29.63142 | 26311 ft | 429 kts | 272° |
| 2026-05-05 21:19 | -25.92186 | 29.59840 | 25803 ft | 425 kts | 272° |
| 2026-05-05 21:19 | -25.92304 | 29.56571 | 25290 ft | 422 kts | 272° |
| 2026-05-05 21:19 | -25.92420 | 29.53324 | 24808 ft | 419 kts | 272° |
| 2026-05-05 21:19 | -25.92535 | 29.50103 | 24313 ft | 416 kts | 272° |
| 2026-05-05 21:20 | -25.92648 | 29.46901 | 23832 ft | 414 kts | 272° |
| 2026-05-05 21:20 | -25.92760 | 29.43715 | 23296 ft | 411 kts | 272° |
| 2026-05-05 21:20 | -25.92871 | 29.40554 | 22727 ft | 408 kts | 272° |
| 2026-05-05 21:20 | -25.92979 | 29.37448 | 22178 ft | 404 kts | 272° |
| 2026-05-05 21:21 | -25.93086 | 29.34321 | 21630 ft | 401 kts | 272° |
| 2026-05-05 21:21 | -25.93192 | 29.31242 | 21088 ft | 397 kts | 273° |
| 2026-05-05 21:21 | -25.93296 | 29.28189 | 20559 ft | 394 kts | 273° |
| 2026-05-05 21:21 | -25.93398 | 29.25160 | 20038 ft | 391 kts | 273° |
| 2026-05-05 21:22 | -25.93499 | 29.22158 | 19539 ft | 388 kts | 273° |
| 2026-05-05 21:22 | -25.93598 | 29.19216 | 19041 ft | 385 kts | 273° |
| 2026-05-05 21:22 | -25.93697 | 29.16259 | 18548 ft | 382 kts | 273° |
| 2026-05-05 21:22 | -25.93794 | 29.13328 | 18016 ft | 379 kts | 273° |
| 2026-05-05 21:23 | -25.93890 | 29.10411 | 17456 ft | 376 kts | 273° |
| 2026-05-05 21:23 | -25.93985 | 29.07516 | 16904 ft | 373 kts | 273° |
| 2026-05-05 21:23 | -25.94078 | 29.04642 | 16360 ft | 371 kts | 273° |
| 2026-05-05 21:23 | -25.94170 | 29.01792 | 15834 ft | 368 kts | 273° |
| 2026-05-05 21:24 | -25.94260 | 28.98972 | 15304 ft | 365 kts | 273° |
| 2026-05-05 21:24 | -25.94350 | 28.96151 | 14798 ft | 363 kts | 273° |
| 2026-05-05 21:24 | -25.94438 | 28.93364 | 14307 ft | 362 kts | 273° |
| 2026-05-05 21:24 | -25.94526 | 28.90565 | 13798 ft | 361 kts | 273° |
| 2026-05-05 21:25 | -25.94612 | 28.87782 | 13244 ft | 360 kts | 273° |
| 2026-05-05 21:25 | -25.94698 | 28.85013 | 12690 ft | 357 kts | 272° |
| 2026-05-05 21:25 | -25.94783 | 28.82264 | 12144 ft | 355 kts | 272° |
| 2026-05-05 21:25 | -25.94867 | 28.79532 | 11600 ft | 352 kts | 272° |
| 2026-05-05 21:26 | -25.94949 | 28.76823 | 11092 ft | 350 kts | 272° |
| 2026-05-05 21:26 | -25.95031 | 28.74128 | 10571 ft | 348 kts | 272° |
| 2026-05-05 21:26 | -25.95111 | 28.71455 | 10192 ft | 345 kts | 271° |
| 2026-05-05 21:26 | -25.95190 | 28.68822 | 10072 ft | 345 kts | 271° |
| 2026-05-05 21:27 | -25.95269 | 28.66163 | 10083 ft | 344 kts | 271° |
| 2026-05-05 21:27 | -25.95347 | 28.63513 | 10071 ft | 342 kts | 271° |
| 2026-05-05 21:27 | -25.95426 | 28.60911 | 9961 ft | 330 kts | 271° |
| 2026-05-05 21:27 | -25.95501 | 28.58424 | 9550 ft | 316 kts | 271° |
| 2026-05-05 21:28 | -25.95571 | 28.56010 | 8939 ft | 310 kts | 270° |
| 2026-05-05 21:28 | -25.95638 | 28.53630 | 8388 ft | 307 kts | 270° |
| 2026-05-05 21:28 | -25.95705 | 28.51264 | 8135 ft | 306 kts | 269° |
| 2026-05-05 21:28 | -25.95772 | 28.48899 | 8090 ft | 306 kts | 269° |
| 2026-05-05 21:29 | -25.95839 | 28.46536 | 8097 ft | 306 kts | 269° |
| 2026-05-05 21:29 | -25.95902 | 28.44194 | 8096 ft | 296 kts | 269° |
| 2026-05-05 21:29 | -25.95968 | 28.41996 | 8100 ft | 273 kts | 269° |
| 2026-05-05 21:29 | -25.96029 | 28.39940 | 8101 ft | 263 kts | 269° |
| 2026-05-05 21:30 | -25.96085 | 28.37908 | 8122 ft | 264 kts | 270° |
| 2026-05-05 21:30 | -25.96144 | 28.35876 | 8116 ft | 262 kts | 269° |
| 2026-05-05 21:30 | -25.96420 | 28.33911 | 8107 ft | 251 kts | 255° |
| 2026-05-05 21:30 | -25.97153 | 28.32226 | 8114 ft | 238 kts | 239° |
| 2026-05-05 21:31 | -25.98297 | 28.30907 | 8121 ft | 240 kts | 221° |
| 2026-05-05 21:31 | -25.99754 | 28.29970 | 8119 ft | 245 kts | 207° |
| 2026-05-05 21:31 | -26.01361 | 28.29457 | 8045 ft | 236 kts | 199° |
| 2026-05-05 21:31 | -26.02946 | 28.29032 | 7733 ft | 233 kts | 200° |
| 2026-05-05 21:32 | -26.04468 | 28.28533 | 7416 ft | 221 kts | 202° |
| 2026-05-05 21:32 | -26.05873 | 28.28102 | 7156 ft | 197 kts | 201° |
| 2026-05-05 21:32 | -26.07125 | 28.27717 | 6922 ft | 177 kts | 201° |
| 2026-05-05 21:32 | -26.08270 | 28.27357 | 6695 ft | 165 kts | 202° |
| 2026-05-05 21:33 | -26.09318 | 28.27031 | 6466 ft | 152 kts | 200° |
| 2026-05-05 21:33 | -26.10299 | 28.26727 | 6251 ft | 141 kts | 199° |
| 2026-05-05 21:33 | -26.11216 | 28.26440 | 6030 ft | 133 kts | 198° |
| 2026-05-05 21:33 | -26.12079 | 28.26184 | 5848 ft | 125 kts | 197° |
| 2026-05-05 21:34 | -26.12899 | 28.25929 | 5657 ft | 122 kts | 199° |
| 2026-05-05 21:34 | -26.13712 | 28.25671 | 5522 ft | 121 kts | 197° |
| 2026-05-05 21:34 | -26.14472 | 28.25435 | 5513 ft | 101 kts | 195° |
| 2026-05-05 21:34 | -26.15051 | 28.25255 | 5515 ft | 74 kts | 195° |
| 2026-05-05 21:35 | -26.15459 | 28.25128 | 5522 ft | 46 kts | 195° |
| 2026-05-05 21:35 | -26.15710 | 28.25030 | 5521 ft | 35 kts | 209° |
| 2026-05-05 21:35 | -26.15860 | 28.24910 | 5521 ft | 21 kts | 220° |
| 2026-05-05 21:35 | -26.15919 | 28.24811 | 5522 ft | 8 kts | 275° |
| 2026-05-05 21:36 | -26.15908 | 28.24796 | 5522 ft | 1 kts | 327° |
| 2026-05-05 21:36 | -26.15855 | 28.24800 | 5522 ft | 16 kts | 12° |
| 2026-05-05 21:36 | -26.15729 | 28.24839 | 5521 ft | 21 kts | 15° |
| 2026-05-05 21:36 | -26.15568 | 28.24888 | 5519 ft | 26 kts | 15° |
| 2026-05-05 21:37 | -26.15386 | 28.24944 | 5520 ft | 29 kts | 15° |
| 2026-05-05 21:37 | -26.15180 | 28.25008 | 5522 ft | 32 kts | 15° |
| 2026-05-05 21:37 | -26.14965 | 28.25075 | 5518 ft | 30 kts | 15° |
| 2026-05-05 21:37 | -26.14757 | 28.25139 | 5517 ft | 29 kts | 15° |
| 2026-05-05 21:38 | -26.14595 | 28.25188 | 5516 ft | 24 kts | 15° |
| 2026-05-05 21:38 | -26.14485 | 28.25205 | 5517 ft | 12 kts | 343° |
| 2026-05-05 21:38 | -26.14400 | 28.25130 | 5521 ft | 18 kts | 315° |
| 2026-05-05 21:38 | -26.14314 | 28.25037 | 5536 ft | 17 kts | 316° |
| 2026-05-05 21:39 | -26.14210 | 28.24925 | 5544 ft | 25 kts | 316° |
| 2026-05-05 21:39 | -26.14077 | 28.24782 | 5540 ft | 28 kts | 316° |
| 2026-05-05 21:39 | -26.13933 | 28.24625 | 5541 ft | 30 kts | 316° |
| 2026-05-05 21:39 | -26.13785 | 28.24463 | 5549 ft | 25 kts | 316° |
| 2026-05-05 21:40 | -26.13657 | 28.24323 | 5550 ft | 27 kts | 315° |
| 2026-05-05 21:40 | -26.13525 | 28.24182 | 5551 ft | 21 kts | 316° |
| 2026-05-05 21:40 | -26.13447 | 28.24098 | 5558 ft | 13 kts | 315° |
| 2026-05-05 21:40 | -26.13389 | 28.24035 | 5561 ft | 9 kts | 316° |
| 2026-05-05 21:41 | -26.13349 | 28.23991 | 5559 ft | 1 kts | 316° |
| 2026-05-05 21:41 | -26.13349 | 28.23990 | 5559 ft | 0 kts | 316° |
| 2026-05-05 21:42 | -26.13348 | 28.23990 | 5559 ft | 1 kts | 316° |
| 2026-05-05 21:43 | -26.13321 | 28.23961 | 5559 ft | 9 kts | 316° |
| 2026-05-05 21:43 | -26.13262 | 28.23897 | 5556 ft | 12 kts | 316° |
| 2026-05-05 21:43 | -26.13201 | 28.23832 | 5556 ft | 10 kts | 315° |
| 2026-05-05 21:43 | -26.13166 | 28.23793 | 5557 ft | 3 kts | 314° |
| 2026-05-05 21:44 | -26.13145 | 28.23743 | 5552 ft | 7 kts | 282° |
| 2026-05-05 21:44 | -26.13134 | 28.23668 | 5556 ft | 12 kts | 278° |
| 2026-05-05 21:44 | -26.13130 | 28.23616 | 5555 ft | 3 kts | 276° |
| 2026-05-05 21:44 | -26.13123 | 28.23559 | 5555 ft | 10 kts | 277° |
| 2026-05-05 21:45 | -26.13116 | 28.23498 | 5556 ft | 2 kts | 277° |
| 2026-05-05 21:45 | -26.13113 | 28.23477 | 5555 ft | 2 kts | 287° |
| 2026-05-05 21:45 | -26.13106 | 28.23467 | 5558 ft | 0 kts | 306° |
| 2026-05-05 21:45 | -26.13106 | 28.23466 | 5558 ft | 0 kts | 311° |
| 2026-05-05 21:46 | -26.13101 | 28.23466 | 5558 ft | 1 kts | 340° |
| 2026-05-05 21:46 | -26.13081 | 28.23464 | 5554 ft | 4 kts | 356° |
| 2026-05-05 21:46 | -26.13049 | 28.23467 | 5556 ft | 4 kts | 5° |
| 2026-05-05 21:46 | -26.13029 | 28.23469 | 5557 ft | 1 kts | 6° |
| 2026-05-05 21:47 | -26.13026 | 28.23469 | 5556 ft | 0 kts | 6° |